createdAt,value
2022-10-04T00:10:01.570Z,26.23
2022-10-04T00:25:03.891Z,25.71
2022-10-04T00:40:06.227Z,25.07
2022-10-04T00:55:08.482Z,24.64
2022-10-04T01:10:10.930Z,24.15
2022-10-04T01:25:13.225Z,23.56
2022-10-04T01:40:15.842Z,22.81
2022-10-04T01:55:18.130Z,22.05
2022-10-04T02:10:20.372Z,21.91
2022-10-04T02:25:23.345Z,20.99
2022-10-04T02:40:25.851Z,20.96
2022-10-04T02:55:28.147Z,20.18
2022-10-04T03:10:30.508Z,20.05
2022-10-04T03:25:32.846Z,19.68
2022-10-04T03:40:35.167Z,19.42
2022-10-04T03:55:37.561Z,19.62
2022-10-04T04:10:39.836Z,19.07
2022-10-04T04:25:42.131Z,18.86
2022-10-04T04:40:44.454Z,18.28
2022-10-04T04:56:02.397Z,17.91
2022-10-04T05:11:05.600Z,18.19
2022-10-04T05:26:07.787Z,17.42
2022-10-04T05:41:09.967Z,17.31
2022-10-04T05:56:12.211Z,17.34
2022-10-04T06:11:14.734Z,16.9
2022-10-04T06:26:17.069Z,16.89
2022-10-04T06:41:19.375Z,16.91
2022-10-04T06:56:21.669Z,16.53
2022-10-04T07:11:23.908Z,16.5
2022-10-04T07:26:26.388Z,16.11
2022-10-04T07:41:28.816Z,16.13
2022-10-04T07:56:31.111Z,15.86
2022-10-04T08:11:33.391Z,16.04
2022-10-04T08:26:35.859Z,15.84
2022-10-04T08:41:38.130Z,15.77
2022-10-04T08:56:40.646Z,15.65
2022-10-04T09:11:43.350Z,15.63
2022-10-04T09:26:46.119Z,15.26
2022-10-04T09:41:48.875Z,15.26
2022-10-04T09:56:51.208Z,15.51
2022-10-04T10:11:53.475Z,15.14
2022-10-04T10:26:55.695Z,15.33
2022-10-04T10:41:58.022Z,15.12
2022-10-04T10:57:00.326Z,14.78
2022-10-04T11:12:02.633Z,14.7
2022-10-04T11:27:04.949Z,14.68
2022-10-04T11:42:07.279Z,14.33
2022-10-04T11:57:09.589Z,14.27
2022-10-04T12:12:11.985Z,14.16
2022-10-04T12:27:14.298Z,14.31
2022-10-04T12:42:16.570Z,13.96
2022-10-04T12:57:18.892Z,14.01
2022-10-04T13:12:21.192Z,13.86
2022-10-04T13:27:23.529Z,13.92
2022-10-04T13:42:25.851Z,13.8
2022-10-04T13:57:28.241Z,13.4
2022-10-04T14:12:30.511Z,13.32
2022-10-04T14:27:33.039Z,13.58
2022-10-04T14:42:35.377Z,13.56
2022-10-04T14:57:37.674Z,13.47
2022-10-04T15:12:58.413Z,13.84
2022-10-04T15:28:11.543Z,14.5
2022-10-04T15:43:13.947Z,14.81
2022-10-04T15:58:16.263Z,16.18
2022-10-04T16:13:18.545Z,17.39
2022-10-04T16:28:20.939Z,18.66
2022-10-04T16:43:23.439Z,18.66
2022-10-04T16:58:25.738Z,22.45
2022-10-04T17:13:28.133Z,19.62
2022-10-04T17:28:30.708Z,19.96
2022-10-04T17:43:33.122Z,19.76
2022-10-04T17:58:35.614Z,20.01
2022-10-04T18:13:37.892Z,20.98
2022-10-04T18:28:40.225Z,21.73
2022-10-04T18:43:42.549Z,21.92
2022-10-04T18:58:45.101Z,22.5
2022-10-04T19:13:47.437Z,22.71
2022-10-04T19:28:49.767Z,23.5
2022-10-04T19:43:52.082Z,24.41
2022-10-04T19:58:54.390Z,25.46
2022-10-04T20:13:56.715Z,26.25
2022-10-04T20:28:59.004Z,26.71
2022-10-04T20:44:01.410Z,26.08
2022-10-04T20:59:03.643Z,26.85
2022-10-04T21:14:06.006Z,27.12
2022-10-04T21:29:08.451Z,27.71
2022-10-04T21:44:10.758Z,28.11
2022-10-04T21:59:13.091Z,28
2022-10-04T22:14:15.387Z,28.54
2022-10-04T22:29:17.813Z,28.29
2022-10-04T22:44:20.102Z,28.77
2022-10-04T22:59:22.426Z,28.49
2022-10-04T23:14:24.762Z,28.43
2022-10-04T23:29:27.259Z,28.08
2022-10-04T23:44:29.501Z,27.85
2022-10-04T23:59:31.867Z,26.87
